OOA weather

Oskaloosa Municipal Airport
Oskaloosa, Iowa, United States

Public forecast

Using degrees Fahrenheit for public forecast. Weather courtesy of forecast.io.

METAR (pilot weather report)

Retrieved 2019/09/23 04:35 UTC (0 seconds ago):

KOOA 230435Z AUTO 30004KT 5SM BR CLR 13/12 A3000 RMK AO2 T01300124

TAF (pilot weather forecast)

Forecast is more than 12 hours old.

Closest forecast is Ottumwa Regional Airport, 7.5 nm (13.8 km) SSE. Retrieved 2019/09/22 00:30 UTC (1 day ago):

TAF KOTM 222326Z 2300/2324 26006KT P6SM VCSH BKN035 BKN070 TEMPO 2300/2301 30011G20KT 5SM -RA BKN012 FM230100 32007KT P6SM BKN030 FM230300 32007KT P6SM SCT250 FM231500 26004KT P6SM SCT250